Time;durP1;ratioP1;P1;durP2;ratioP2;P2;SDS_P1;SDS_P2;PMS_P1;PMS_P2;Temp;Humidity;BMP_temperature;BMP_pressure;BME280_temperature;BME280_humidity;BME280_pressure;Samples;Min_cycle;Max_cycle;Signal;HPM_P1;HPM_P2
2020/12/23 00:01:08;;;;;;;0.60;0.50;;;13.10;99.90;;;;;;5041377;28;20224;-78
2020/12/23 00:03:34;;;;;;;1.93;0.70;;;13.10;99.90;;;;;;5045009;28;20208;-78
2020/12/23 00:05:59;;;;;;;0.90;0.70;;;13.10;99.90;;;;;;5042259;28;20757;-78
2020/12/23 00:08:25;;;;;;;0.90;0.60;;;13.10;99.90;;;;;;5042575;28;20182;-79
2020/12/23 00:10:50;;;;;;;0.70;0.70;;;13.20;99.90;;;;;;5047586;28;20596;-78
2020/12/23 00:13:16;;;;;;;3.60;1.00;;;13.20;99.90;;;;;;5048992;28;20663;-79
2020/12/23 00:15:41;;;;;;;0.63;0.60;;;13.10;99.90;;;;;;5053897;28;20191;-79
2020/12/23 00:18:07;;;;;;;0.83;0.83;;;13.10;99.90;;;;;;5052469;28;20181;-79
2020/12/23 00:20:32;;;;;;;0.60;0.60;;;13.20;99.90;;;;;;5045548;28;20173;-78
2020/12/23 00:22:58;;;;;;;1.00;0.60;;;13.30;99.90;;;;;;5047443;28;20200;-79
2020/12/23 00:25:24;;;;;;;1.20;0.60;;;13.30;99.90;;;;;;5048734;28;20210;-78
2020/12/23 00:27:49;;;;;;;0.43;0.43;;;13.30;99.90;;;;;;5049840;28;20169;-79
2020/12/23 00:30:16;;;;;;;2.60;0.60;;;13.40;99.90;;;;;;5049285;28;20424;-78
2020/12/23 00:32:42;;;;;;;1.63;0.50;;;13.40;99.90;;;;;;5046859;28;20195;-78
2020/12/23 00:35:07;;;;;;;2.07;0.60;;;13.50;99.90;;;;;;5046961;28;20430;-78
2020/12/23 00:37:33;;;;;;;0.50;0.50;;;13.50;99.90;;;;;;5047600;28;20192;-78
2020/12/23 00:39:58;;;;;;;0.60;0.50;;;13.50;99.90;;;;;;5042067;28;20694;-79
2020/12/23 00:42:24;;;;;;;0.80;0.70;;;13.60;99.90;;;;;;5046290;28;20233;-79
2020/12/23 00:44:50;;;;;;;0.63;0.60;;;13.60;99.90;;;;;;5044013;28;20227;-79
2020/12/23 00:47:15;;;;;;;0.70;0.70;;;13.60;99.90;;;;;;5046727;28;20218;-79
2020/12/23 00:49:41;;;;;;;0.63;0.63;;;13.60;99.90;;;;;;5047987;28;20173;-78
2020/12/23 00:52:06;;;;;;;0.60;0.60;;;13.60;99.90;;;;;;5045078;28;20229;-78
2020/12/23 00:54:32;;;;;;;0.90;0.60;;;13.60;99.90;;;;;;5045771;28;20189;-79
2020/12/23 00:56:57;;;;;;;0.60;0.50;;;13.60;99.90;;;;;;5047950;28;20590;-78
2020/12/23 00:59:23;;;;;;;0.60;0.60;;;13.60;99.90;;;;;;5046473;28;20178;-78
2020/12/23 01:01:48;;;;;;;0.57;0.57;;;13.60;99.90;;;;;;5047806;28;20280;-78
2020/12/23 01:04:14;;;;;;;0.70;0.60;;;13.70;99.90;;;;;;5044861;28;20382;-78
2020/12/23 01:06:39;;;;;;;0.70;0.50;;;13.70;99.90;;;;;;5044823;28;20285;-78
2020/12/23 01:09:05;;;;;;;0.60;0.60;;;13.80;99.90;;;;;;5047496;28;20177;-79
2020/12/23 01:11:30;;;;;;;0.57;0.57;;;13.80;99.90;;;;;;5045429;28;20206;-79
2020/12/23 01:13:56;;;;;;;0.87;0.50;;;13.80;99.90;;;;;;5046899;28;20273;-79
2020/12/23 01:16:22;;;;;;;1.57;0.60;;;13.80;99.90;;;;;;5046449;28;20189;-78
2020/12/23 01:18:48;;;;;;;0.57;0.57;;;13.90;99.90;;;;;;5045619;28;20184;-78
2020/12/23 01:21:13;;;;;;;0.67;0.60;;;13.80;99.90;;;;;;5043313;28;20844;-78
2020/12/23 01:23:40;;;;;;;0.60;0.60;;;13.90;99.90;;;;;;5046147;28;20420;-79
2020/12/23 01:26:06;;;;;;;0.60;0.60;;;13.90;99.90;;;;;;5036339;28;20280;-78
2020/12/23 01:28:31;;;;;;;0.97;0.63;;;13.90;99.90;;;;;;5044185;28;20507;-78
2020/12/23 01:30:57;;;;;;;0.87;0.50;;;13.90;99.90;;;;;;5046440;28;20594;-78
2020/12/23 01:33:22;;;;;;;2.30;0.50;;;13.90;99.90;;;;;;5043939;28;20665;-78
2020/12/23 01:35:48;;;;;;;0.60;0.50;;;13.90;99.90;;;;;;5038382;28;20190;-78
2020/12/23 01:38:13;;;;;;;0.60;0.60;;;13.90;99.90;;;;;;5045580;28;20589;-78
2020/12/23 01:40:39;;;;;;;0.70;0.50;;;13.90;99.90;;;;;;5047198;28;20600;-78
2020/12/23 01:43:08;;;;;;;0.93;0.60;;;13.90;99.90;;;;;;5042116;28;20608;-78
2020/12/23 01:45:35;;;;;;;0.50;0.50;;;13.80;99.90;;;;;;5046520;28;20279;-78
2020/12/23 01:48:08;;;;;;;1.03;0.60;;;13.90;99.90;;;;;;5043488;28;20431;-78
2020/12/23 01:50:34;;;;;;;0.53;0.53;;;13.90;99.90;;;;;;5046006;28;20405;-78
2020/12/23 01:52:59;;;;;;;0.47;0.43;;;13.90;99.90;;;;;;5057520;28;20448;-78
2020/12/23 01:55:25;;;;;;;0.60;0.60;;;13.90;99.90;;;;;;5051981;28;20277;-78
2020/12/23 01:57:51;;;;;;;0.50;0.50;;;13.90;99.90;;;;;;5050604;28;20197;-78
2020/12/23 02:00:17;;;;;;;0.60;0.50;;;13.90;99.90;;;;;;5050222;28;20215;-78
2020/12/23 02:02:43;;;;;;;0.70;0.50;;;13.90;99.90;;;;;;5050455;28;20443;-78
2020/12/23 02:05:10;;;;;;;0.50;0.50;;;13.90;99.90;;;;;;5043293;28;20210;-78
2020/12/23 02:07:36;;;;;;;0.60;0.60;;;13.90;99.90;;;;;;5069675;28;20952;-78
2020/12/23 02:10:04;;;;;;;0.50;0.50;;;14.00;99.90;;;;;;5041375;28;20462;-79
2020/12/23 02:12:30;;;;;;;0.70;0.60;;;14.00;99.90;;;;;;5042135;28;20455;-78
2020/12/23 02:14:56;;;;;;;1.43;0.50;;;14.10;99.90;;;;;;5044019;28;20440;-78
2020/12/23 02:17:23;;;;;;;0.50;0.40;;;14.10;99.90;;;;;;5044940;28;20184;-78
2020/12/23 02:19:49;;;;;;;0.63;0.40;;;14.10;99.90;;;;;;5044385;28;20495;-78
2020/12/23 02:22:22;;;;;;;0.50;0.50;;;14.10;99.90;;;;;;5046163;28;20447;-78
2020/12/23 02:24:51;;;;;;;0.60;0.50;;;14.10;99.90;;;;;;5045531;28;20973;-78
2020/12/23 02:27:19;;;;;;;0.60;0.60;;;14.10;99.90;;;;;;5039457;28;20420;-78
2020/12/23 02:29:47;;;;;;;1.33;0.50;;;14.10;99.90;;;;;;5046534;28;20428;-78
2020/12/23 02:32:13;;;;;;;0.50;0.50;;;14.10;99.90;;;;;;5042789;28;20519;-78
2020/12/23 02:34:39;;;;;;;0.50;0.50;;;14.20;99.90;;;;;;5045831;28;20439;-78
2020/12/23 02:37:06;;;;;;;0.50;0.50;;;14.20;99.90;;;;;;5043042;28;20993;-78
2020/12/23 02:39:32;;;;;;;1.60;0.50;;;14.20;99.90;;;;;;5044720;28;20460;-79
2020/12/23 02:42:00;;;;;;;0.70;0.50;;;14.20;99.90;;;;;;5047345;28;20985;-78
2020/12/23 02:44:25;;;;;;;0.60;0.50;;;14.20;99.90;;;;;;5045729;28;20459;-79
2020/12/23 02:47:07;;;;;;;0.60;0.50;;;14.20;99.90;;;;;;5045787;28;20432;-79
2020/12/23 02:49:32;;;;;;;0.60;0.50;;;14.20;99.90;;;;;;5043825;28;20170;-79
2020/12/23 02:51:58;;;;;;;3.47;0.50;;;14.20;99.90;;;;;;5046693;28;20437;-79
2020/12/23 02:54:24;;;;;;;1.83;0.50;;;14.20;99.90;;;;;;5045642;28;20191;-78
2020/12/23 02:56:50;;;;;;;1.07;0.50;;;14.10;99.90;;;;;;5044883;28;20559;-79
2020/12/23 02:59:15;;;;;;;0.60;0.60;;;14.20;99.90;;;;;;5046505;28;20602;-79
2020/12/23 03:01:42;;;;;;;0.90;0.80;;;14.20;99.90;;;;;;5043207;28;20503;-78
2020/12/23 03:04:08;;;;;;;0.60;0.40;;;14.30;99.90;;;;;;5043179;28;20297;-79
2020/12/23 03:06:34;;;;;;;0.53;0.50;;;14.30;99.90;;;;;;5042546;28;20427;-78
2020/12/23 03:09:04;;;;;;;0.50;0.50;;;14.20;99.90;;;;;;5066277;28;20705;-78
2020/12/23 03:11:29;;;;;;;0.93;0.50;;;14.30;99.90;;;;;;5041013;28;20453;-78
2020/12/23 03:13:55;;;;;;;0.90;0.50;;;14.30;99.90;;;;;;5043350;28;20440;-78
2020/12/23 03:16:20;;;;;;;0.50;0.50;;;14.40;99.90;;;;;;5045206;28;20556;-78
2020/12/23 03:18:46;;;;;;;1.17;0.50;;;14.30;99.90;;;;;;5042986;28;20181;-78
2020/12/23 03:21:11;;;;;;;0.40;0.40;;;14.40;99.90;;;;;;5045116;28;20573;-78
2020/12/23 03:23:37;;;;;;;0.60;0.57;;;14.40;99.90;;;;;;5042684;28;20558;-78
2020/12/23 03:26:04;;;;;;;1.17;0.50;;;14.40;99.90;;;;;;5041593;28;20202;-78
2020/12/23 03:28:31;;;;;;;0.50;0.50;;;14.30;99.90;;;;;;5044648;28;20170;-79
2020/12/23 03:30:57;;;;;;;0.50;0.50;;;14.40;99.90;;;;;;5043570;28;20429;-78
2020/12/23 03:33:22;;;;;;;4.33;0.60;;;14.40;99.90;;;;;;5043901;28;20474;-78
2020/12/23 03:35:48;;;;;;;1.73;0.40;;;14.30;99.90;;;;;;5042445;28;20186;-78
2020/12/23 03:38:13;;;;;;;0.60;0.60;;;14.30;99.90;;;;;;5043872;28;20212;-78
2020/12/23 03:40:39;;;;;;;0.60;0.50;;;14.30;99.90;;;;;;5042533;28;20174;-78
2020/12/23 03:43:04;;;;;;;1.57;0.50;;;14.30;99.90;;;;;;5045320;28;20223;-78
2020/12/23 03:45:30;;;;;;;0.60;0.60;;;14.30;99.90;;;;;;5032410;28;20218;-78
2020/12/23 03:47:56;;;;;;;0.57;0.50;;;14.30;99.90;;;;;;5041341;28;20186;-79
2020/12/23 03:50:22;;;;;;;0.50;0.50;;;14.30;99.90;;;;;;5044236;28;20180;-78
2020/12/23 03:52:47;;;;;;;0.50;0.50;;;14.40;99.90;;;;;;5042587;28;20432;-78
2020/12/23 03:55:13;;;;;;;1.07;0.60;;;14.40;99.90;;;;;;5043515;28;20244;-79
2020/12/23 03:57:39;;;;;;;0.50;0.50;;;14.40;99.90;;;;;;5040909;28;20182;-78
2020/12/23 04:00:07;;;;;;;1.10;0.50;;;14.40;99.90;;;;;;5042815;28;20185;-78
2020/12/23 04:02:32;;;;;;;0.60;0.60;;;14.30;99.90;;;;;;5069283;28;20647;-78
2020/12/23 04:04:58;;;;;;;0.53;0.53;;;14.30;99.90;;;;;;5044229;28;20481;-78
2020/12/23 04:07:24;;;;;;;0.60;0.50;;;14.30;99.90;;;;;;5042971;28;20670;-78
2020/12/23 04:09:49;;;;;;;0.90;0.50;;;14.30;99.90;;;;;;5041955;28;20178;-78
2020/12/23 04:12:15;;;;;;;1.80;0.50;;;14.40;99.90;;;;;;5044158;28;20196;-78
2020/12/23 04:14:41;;;;;;;2.37;0.57;;;14.40;99.90;;;;;;5041782;28;20174;-78
2020/12/23 04:17:07;;;;;;;1.53;0.70;;;14.40;99.90;;;;;;5036703;28;20661;-78
2020/12/23 04:19:32;;;;;;;0.50;0.50;;;14.40;99.90;;;;;;5041763;28;20459;-78
2020/12/23 04:21:58;;;;;;;0.50;0.50;;;14.40;99.90;;;;;;5038112;28;20294;-77
2020/12/23 04:24:23;;;;;;;0.70;0.50;;;14.30;99.90;;;;;;5040818;28;20204;-77
2020/12/23 04:26:49;;;;;;;1.37;0.60;;;14.30;99.90;;;;;;5040029;28;20227;-77
2020/12/23 04:29:14;;;;;;;0.50;0.50;;;14.20;99.90;;;;;;5042168;28;20256;-77
2020/12/23 04:31:40;;;;;;;34.87;0.77;;;14.10;99.90;;;;;;5038667;28;20193;-77
2020/12/23 04:34:05;;;;;;;1.57;0.60;;;14.10;99.90;;;;;;5039317;28;20177;-77
2020/12/23 04:36:31;;;;;;;1.07;0.60;;;14.10;99.90;;;;;;5041825;28;20187;-76
2020/12/23 04:38:56;;;;;;;1.73;0.50;;;14.10;99.90;;;;;;5040428;28;20182;-77
2020/12/23 04:41:22;;;;;;;0.50;0.50;;;14.00;99.90;;;;;;5040410;28;20742;-77
2020/12/23 04:43:47;;;;;;;0.57;0.50;;;14.00;99.90;;;;;;5041315;28;20256;-77
2020/12/23 04:46:18;;;;;;;0.60;0.50;;;13.90;99.90;;;;;;5036644;28;20198;-77
2020/12/23 04:48:49;;;;;;;0.60;0.50;;;14.00;99.90;;;;;;5039196;28;20730;-78
2020/12/23 04:51:17;;;;;;;0.40;0.40;;;13.90;99.90;;;;;;5041932;28;20785;-78
2020/12/23 04:53:42;;;;;;;1.33;0.50;;;13.90;99.90;;;;;;5039317;28;20507;-78
2020/12/23 04:56:08;;;;;;;1.07;0.60;;;13.90;99.90;;;;;;5041169;28;20518;-78
2020/12/23 04:58:34;;;;;;;0.50;0.40;;;13.90;99.90;;;;;;5045308;28;20551;-78
2020/12/23 05:01:00;;;;;;;1.37;0.43;;;13.80;99.90;;;;;;5045193;28;20205;-78
2020/12/23 05:03:25;;;;;;;0.60;0.50;;;13.80;99.90;;;;;;5044143;28;20420;-77
2020/12/23 05:05:51;;;;;;;0.50;0.50;;;13.80;99.90;;;;;;5044122;28;20237;-77
2020/12/23 05:08:17;;;;;;;0.80;0.50;;;13.70;99.90;;;;;;5040348;28;20181;-77
2020/12/23 05:10:43;;;;;;;0.47;0.43;;;13.60;99.90;;;;;;5042392;28;20428;-77
2020/12/23 05:13:10;;;;;;;0.47;0.47;;;13.60;99.90;;;;;;5046019;28;20196;-77
2020/12/23 05:15:36;;;;;;;1.63;0.60;;;13.60;99.90;;;;;;5041966;28;20239;-77
2020/12/23 05:18:02;;;;;;;0.57;0.57;;;13.70;99.90;;;;;;5044976;28;20874;-77
2020/12/23 05:20:29;;;;;;;0.50;0.50;;;13.70;99.90;;;;;;5042186;28;20173;-77
2020/12/23 05:22:55;;;;;;;0.60;0.60;;;13.70;99.90;;;;;;5044092;28;20440;-77
2020/12/23 05:25:20;;;;;;;0.80;0.50;;;13.70;99.90;;;;;;5043902;28;20822;-76
2020/12/23 05:27:50;;;;;;;1.20;0.50;;;13.70;99.90;;;;;;5039538;28;20432;-76
2020/12/23 05:30:17;;;;;;;0.50;0.50;;;13.70;99.90;;;;;;5043652;28;20174;-76
2020/12/23 05:32:46;;;;;;;0.50;0.50;;;13.70;99.90;;;;;;5041515;28;20934;-77
2020/12/23 05:35:14;;;;;;;0.50;0.50;;;13.70;99.90;;;;;;5045427;28;20768;-78
2020/12/23 05:37:41;;;;;;;0.50;0.50;;;13.70;99.90;;;;;;5041918;28;20815;-77
2020/12/23 05:40:06;;;;;;;1.57;0.60;;;13.60;99.90;;;;;;5038590;28;20994;-77
2020/12/23 05:42:32;;;;;;;1.20;0.53;;;13.70;99.90;;;;;;5042959;28;20460;-79
2020/12/23 05:44:58;;;;;;;0.50;0.50;;;13.70;99.90;;;;;;5044390;28;20241;-78
2020/12/23 05:47:25;;;;;;;0.60;0.60;;;13.80;99.90;;;;;;5043859;28;20231;-77
2020/12/23 05:49:53;;;;;;;1.60;0.50;;;13.90;99.90;;;;;;5071073;28;20185;-78
2020/12/23 05:52:21;;;;;;;0.63;0.63;;;13.90;99.90;;;;;;5044404;28;20436;-77
2020/12/23 05:54:50;;;;;;;0.70;0.70;;;13.90;99.90;;;;;;5042918;28;20424;-78
2020/12/23 05:57:15;;;;;;;0.50;0.50;;;13.80;99.90;;;;;;5044715;28;20420;-77
2020/12/23 05:59:41;;;;;;;0.60;0.50;;;13.80;99.90;;;;;;5040074;28;20450;-78
2020/12/23 06:02:10;;;;;;;1.70;0.60;;;13.80;99.90;;;;;;5046318;28;20202;-79
2020/12/23 06:04:39;;;;;;;0.70;0.60;;;13.90;99.90;;;;;;5043259;28;20693;-78
2020/12/23 06:07:05;;;;;;;0.50;0.50;;;13.90;99.90;;;;;;5041708;28;20507;-78
2020/12/23 06:09:46;;;;;;;0.50;0.50;;;13.90;99.90;;;;;;5042521;28;20416;-78
2020/12/23 06:12:20;;;;;;;0.87;0.67;;;13.90;99.90;;;;;;5038738;28;20424;-78
2020/12/23 06:14:57;;;;;;;1.00;0.73;;;14.00;99.90;;;;;;5040271;28;20470;-78
2020/12/23 06:17:24;;;;;;;0.50;0.50;;;14.00;99.90;;;;;;5043073;28;20771;-78
2020/12/23 06:19:55;;;;;;;2.50;1.80;;;13.90;99.90;;;;;;5042947;28;20523;-79
2020/12/23 06:22:24;;;;;;;0.60;0.40;;;14.00;99.90;;;;;;5043322;28;20452;-78
2020/12/23 06:24:49;;;;;;;0.53;0.50;;;13.90;99.90;;;;;;5042617;28;20488;-78
2020/12/23 06:27:15;;;;;;;0.50;0.43;;;14.00;99.90;;;;;;5044004;28;20452;-77
2020/12/23 06:29:43;;;;;;;1.00;0.50;;;14.00;99.90;;;;;;5039685;28;20174;-78
2020/12/23 06:32:20;;;;;;;0.50;0.50;;;14.00;99.90;;;;;;5038643;28;20739;-79
2020/12/23 06:35:00;;;;;;;1.57;0.50;;;14.00;99.90;;;;;;5035927;28;20511;-78
2020/12/23 06:37:30;;;;;;;0.90;0.50;;;14.00;99.90;;;;;;5043162;28;20960;-78
2020/12/23 06:39:56;;;;;;;0.70;0.50;;;13.90;99.90;;;;;;5043087;28;20463;-78
2020/12/23 06:42:22;;;;;;;0.60;0.57;;;13.90;99.90;;;;;;5038624;28;20440;-81
2020/12/23 06:44:48;;;;;;;0.50;0.50;;;13.90;99.90;;;;;;5042111;28;20194;-75
2020/12/23 06:47:17;;;;;;;0.57;0.50;;;14.00;99.90;;;;;;5040345;28;20936;-75
2020/12/23 06:49:53;;;;;;;0.50;0.50;;;14.00;99.90;;;;;;5043436;28;20205;-76
2020/12/23 06:52:22;;;;;;;0.60;0.50;;;14.00;99.90;;;;;;5034692;28;20440;-76
2020/12/23 06:55:02;;;;;;;0.90;0.60;;;13.90;99.90;;;;;;5039796;28;20432;-76
2020/12/23 06:57:39;;;;;;;1.20;0.50;;;13.90;99.90;;;;;;5039081;28;20421;-77
2020/12/23 07:00:15;;;;;;;0.50;0.50;;;13.90;99.90;;;;;;5042961;28;20455;-76
2020/12/23 07:02:44;;;;;;;0.67;0.67;;;13.80;99.90;;;;;;5035474;28;20578;-76
2020/12/23 07:05:35;;;;;;;1.00;0.60;;;13.80;99.90;;;;;;5035101;28;20563;-77
2020/12/23 07:08:03;;;;;;;0.50;0.50;;;13.70;99.90;;;;;;5030158;28;20427;-74
2020/12/23 07:10:31;;;;;;;0.50;0.50;;;13.70;99.90;;;;;;5042214;28;20822;-75
2020/12/23 07:13:13;;;;;;;0.50;0.40;;;13.70;99.90;;;;;;5041487;28;20486;-76
2020/12/23 07:15:42;;;;;;;0.60;0.50;;;13.70;99.90;;;;;;5038655;28;20440;-75
2020/12/23 07:18:10;;;;;;;0.50;0.50;;;13.70;99.90;;;;;;5033370;28;20425;-76
2020/12/23 07:20:41;;;;;;;0.53;0.47;;;13.70;99.90;;;;;;5042848;28;20416;-76
2020/12/23 07:23:09;;;;;;;0.40;0.40;;;13.70;99.90;;;;;;5039594;28;20436;-77
2020/12/23 07:25:41;;;;;;;0.90;0.50;;;13.70;99.90;;;;;;5041311;28;20460;-76
2020/12/23 07:28:08;;;;;;;0.73;0.50;;;13.70;99.90;;;;;;5039106;28;20431;-77
2020/12/23 07:30:39;;;;;;;1.17;0.70;;;13.60;99.90;;;;;;5064875;28;20425;-77
2020/12/23 07:33:08;;;;;;;0.60;0.60;;;13.60;99.90;;;;;;5041993;28;20760;-76
2020/12/23 07:35:35;;;;;;;1.47;0.60;;;13.60;99.90;;;;;;5040462;28;20486;-75
2020/12/23 07:38:02;;;;;;;3.30;0.60;;;13.60;99.90;;;;;;5060288;28;20421;-75
2020/12/23 07:40:30;;;;;;;1.43;0.50;;;13.60;99.90;;;;;;5040584;28;20936;-75
2020/12/23 07:42:56;;;;;;;3.27;0.50;;;13.60;99.90;;;;;;5040568;28;20452;-73
2020/12/23 07:45:23;;;;;;;1.03;0.60;;;13.60;99.90;;;;;;5041744;28;20462;-75
2020/12/23 07:47:56;;;;;;;1.03;0.63;;;13.60;99.90;;;;;;5040075;28;20427;-75
2020/12/23 07:50:23;;;;;;;0.60;0.50;;;13.70;99.90;;;;;;5040271;28;20420;-73
2020/12/23 07:52:49;;;;;;;0.70;0.50;;;13.70;99.90;;;;;;5041249;28;21093;-75
2020/12/23 07:55:17;;;;;;;0.70;0.50;;;13.70;99.90;;;;;;5040169;28;20424;-75
2020/12/23 07:57:44;;;;;;;0.83;0.53;;;13.80;99.90;;;;;;5042558;28;21000;-75
2020/12/23 08:00:11;;;;;;;1.43;0.60;;;13.80;99.90;;;;;;5038421;28;20429;-75
2020/12/23 08:02:37;;;;;;;0.80;0.50;;;13.80;99.90;;;;;;5043002;28;20452;-75
2020/12/23 08:05:04;;;;;;;8.10;0.60;;;13.80;99.90;;;;;;5041380;28;20460;-74
2020/12/23 08:07:30;;;;;;;1.00;1.00;;;13.80;99.90;;;;;;5041573;28;20174;-75
2020/12/23 08:09:55;;;;;;;0.53;0.53;;;13.90;99.90;;;;;;5040226;28;20431;-75
2020/12/23 08:12:21;;;;;;;0.70;0.57;;;13.90;99.90;;;;;;5039889;28;20288;-74
2020/12/23 08:14:48;;;;;;;0.70;0.60;;;13.90;99.90;;;;;;5035911;28;20190;-74
2020/12/23 08:17:21;;;;;;;0.50;0.50;;;14.00;99.90;;;;;;5042594;28;20458;-74
2020/12/23 08:20:00;;;;;;;0.70;0.60;;;14.00;99.90;;;;;;5040689;28;20486;-74
2020/12/23 08:22:26;;;;;;;0.93;0.70;;;14.00;99.90;;;;;;5038377;28;20444;-75
2020/12/23 08:25:00;;;;;;;2.33;0.60;;;14.00;99.90;;;;;;5040100;28;20531;-74
2020/12/23 08:27:26;;;;;;;1.00;0.70;;;14.10;99.90;;;;;;5040792;28;20425;-74
2020/12/23 08:29:52;;;;;;;0.80;0.60;;;14.00;99.90;;;;;;5039789;28;20438;-76
2020/12/23 08:32:23;;;;;;;0.60;0.50;;;14.10;99.90;;;;;;5058762;28;20213;-75
2020/12/23 08:34:51;;;;;;;1.90;0.80;;;14.10;99.90;;;;;;5045423;28;20542;-75
2020/12/23 08:37:24;;;;;;;0.70;0.63;;;14.10;99.90;;;;;;5042244;28;20424;-75
2020/12/23 08:39:57;;;;;;;0.70;0.60;;;14.10;99.90;;;;;;5045116;28;20985;-78
2020/12/23 08:42:23;;;;;;;1.00;0.63;;;14.10;99.90;;;;;;5041421;28;20440;-72
2020/12/23 08:44:50;;;;;;;0.70;0.70;;;14.30;99.90;;;;;;5042419;28;21487;-72
2020/12/23 08:47:24;;;;;;;0.60;0.60;;;14.30;99.90;;;;;;5042894;28;20648;-73
2020/12/23 08:49:52;;;;;;;0.70;0.60;;;14.40;99.90;;;;;;5043009;28;20485;-74
2020/12/23 08:52:18;;;;;;;1.43;0.57;;;14.40;99.90;;;;;;5037524;28;20448;-72
2020/12/23 08:54:44;;;;;;;0.63;0.60;;;14.40;99.90;;;;;;5040428;28;20413;-73
2020/12/23 08:57:11;;;;;;;0.50;0.50;;;14.40;99.90;;;;;;5048761;28;20416;-73
2020/12/23 08:59:40;;;;;;;3.60;0.50;;;14.50;99.90;;;;;;5044550;28;20931;-73
2020/12/23 09:02:14;;;;;;;0.60;0.50;;;14.60;99.90;;;;;;5043086;28;20460;-72
2020/12/23 09:04:39;;;;;;;0.53;0.50;;;14.60;99.90;;;;;;5035567;28;20522;-72
2020/12/23 09:07:05;;;;;;;0.60;0.60;;;14.60;99.90;;;;;;5044389;28;20814;-72
2020/12/23 09:09:31;;;;;;;0.83;0.63;;;14.60;99.90;;;;;;5033807;28;20182;-72
2020/12/23 09:11:58;;;;;;;2.40;0.60;;;14.60;99.90;;;;;;5035539;28;20249;-72
2020/12/23 09:14:31;;;;;;;0.60;0.50;;;14.60;99.90;;;;;;5035248;28;20468;-72
2020/12/23 09:17:00;;;;;;;0.90;0.63;;;14.60;99.90;;;;;;5034633;28;20433;-72
2020/12/23 09:19:43;;;;;;;1.43;0.70;;;14.50;99.90;;;;;;5036453;28;20806;-72
2020/12/23 09:22:11;;;;;;;0.80;0.60;;;14.50;99.90;;;;;;5038257;28;20479;-73
2020/12/23 09:24:37;;;;;;;2.10;0.53;;;14.50;99.90;;;;;;5037135;28;20476;-74
2020/12/23 09:27:21;;;;;;;0.70;0.70;;;14.50;99.90;;;;;;5034456;28;20439;-72
2020/12/23 09:29:46;;;;;;;0.70;0.60;;;14.50;99.90;;;;;;5034915;28;20691;-73
2020/12/23 09:32:12;;;;;;;0.80;0.50;;;14.50;99.90;;;;;;5043592;28;20540;-73
2020/12/23 09:34:39;;;;;;;1.60;0.73;;;14.50;99.90;;;;;;5039780;28;20200;-73
2020/12/23 09:37:05;;;;;;;0.93;0.70;;;14.60;99.90;;;;;;5042011;28;20669;-73
2020/12/23 09:39:30;;;;;;;0.50;0.50;;;14.60;99.90;;;;;;5041303;28;20434;-73
2020/12/23 09:42:05;;;;;;;0.83;0.60;;;14.60;99.90;;;;;;5040306;28;20838;-73
2020/12/23 09:44:31;;;;;;;0.53;0.50;;;14.60;99.90;;;;;;5043742;28;20643;-74
2020/12/23 09:46:57;;;;;;;1.50;0.63;;;14.60;99.90;;;;;;5041310;28;20778;-76
2020/12/23 09:49:22;;;;;;;1.23;0.90;;;14.60;99.90;;;;;;5042876;28;20578;-73
2020/12/23 09:51:49;;;;;;;0.57;0.57;;;14.60;99.90;;;;;;5043830;28;20258;-73
2020/12/23 09:54:15;;;;;;;1.33;0.70;;;14.60;99.90;;;;;;5042917;28;20200;-73
2020/12/23 09:56:51;;;;;;;0.80;0.70;;;14.60;99.90;;;;;;5041529;28;20454;-74
2020/12/23 09:59:18;;;;;;;0.60;0.60;;;14.60;99.90;;;;;;5038142;28;20705;-72
2020/12/23 10:01:44;;;;;;;0.73;0.73;;;14.60;99.90;;;;;;5037427;28;20456;-74
2020/12/23 10:04:09;;;;;;;0.60;0.60;;;14.70;99.90;;;;;;5061060;28;20519;-74
2020/12/23 10:06:35;;;;;;;0.60;0.50;;;14.70;99.90;;;;;;5037760;28;20216;-75
2020/12/23 10:09:01;;;;;;;2.00;0.60;;;14.70;99.90;;;;;;5040228;28;20193;-73
2020/12/23 10:11:27;;;;;;;0.80;0.70;;;14.70;99.90;;;;;;5042479;28;20206;-74
2020/12/23 10:13:53;;;;;;;0.77;0.60;;;14.70;99.90;;;;;;5041320;28;20445;-73
2020/12/23 10:16:18;;;;;;;0.60;0.60;;;14.70;99.90;;;;;;5043435;28;20424;-73
2020/12/23 10:18:44;;;;;;;0.60;0.50;;;14.70;99.90;;;;;;5042244;28;20189;-74
2020/12/23 10:21:09;;;;;;;1.00;0.60;;;14.70;99.90;;;;;;5043505;28;20412;-77
2020/12/23 10:23:35;;;;;;;0.93;0.90;;;14.70;99.90;;;;;;5044503;28;20425;-75
2020/12/23 10:26:00;;;;;;;0.50;0.50;;;14.60;99.90;;;;;;5041842;28;20224;-75
2020/12/23 10:28:26;;;;;;;3.00;0.80;;;14.60;99.90;;;;;;5042443;28;20186;-75
2020/12/23 10:30:51;;;;;;;1.23;0.70;;;14.70;99.90;;;;;;5042465;28;20236;-74
2020/12/23 10:33:17;;;;;;;1.13;0.60;;;14.80;99.90;;;;;;5040772;28;20592;-74
2020/12/23 10:35:43;;;;;;;0.70;0.60;;;14.80;99.90;;;;;;5041456;28;20188;-75
2020/12/23 10:38:08;;;;;;;0.70;0.60;;;14.90;99.90;;;;;;5039999;28;20256;-74
2020/12/23 10:40:34;;;;;;;0.50;0.50;;;15.10;99.90;;;;;;5042804;28;20185;-74
2020/12/23 10:43:02;;;;;;;1.00;0.70;;;15.10;99.90;;;;;;5041251;28;20209;-76
2020/12/23 10:45:27;;;;;;;3.70;0.70;;;15.20;99.90;;;;;;5042705;28;20202;-76
2020/12/23 10:47:53;;;;;;;0.77;0.57;;;15.30;99.90;;;;;;5038463;28;20435;-74
2020/12/23 10:50:18;;;;;;;1.03;0.67;;;15.30;99.90;;;;;;5041646;28;20542;-74
2020/12/23 10:52:44;;;;;;;1.77;0.50;;;15.30;99.90;;;;;;5038728;28;20276;-74
2020/12/23 10:55:09;;;;;;;0.80;0.60;;;15.30;99.90;;;;;;5038412;28;20272;-73
2020/12/23 10:57:35;;;;;;;2.30;0.60;;;15.40;99.90;;;;;;5033522;28;20726;-75
2020/12/23 11:00:00;;;;;;;1.37;0.67;;;15.40;99.90;;;;;;5040195;28;20255;-75
2020/12/23 11:02:26;;;;;;;1.13;0.60;;;15.40;99.90;;;;;;5040200;28;20244;-78
2020/12/23 11:04:51;;;;;;;0.60;0.50;;;15.40;99.90;;;;;;5042410;28;20209;-76
2020/12/23 11:07:17;;;;;;;0.70;0.50;;;15.50;99.90;;;;;;5040453;28;20215;-76
2020/12/23 11:09:43;;;;;;;0.50;0.50;;;15.50;99.90;;;;;;5040174;28;20178;-77
2020/12/23 11:12:09;;;;;;;0.60;0.50;;;15.50;99.90;;;;;;5039380;28;20202;-76
2020/12/23 11:14:35;;;;;;;0.60;0.60;;;15.50;99.90;;;;;;5042654;28;20430;-75
2020/12/23 11:17:00;;;;;;;2.30;0.90;;;15.50;99.90;;;;;;5040969;28;20192;-74
2020/12/23 11:19:26;;;;;;;0.60;0.60;;;15.40;99.90;;;;;;5042530;28;20170;-73
2020/12/23 11:21:53;;;;;;;0.67;0.50;;;15.30;99.90;;;;;;5040589;28;20281;-74
2020/12/23 11:24:18;;;;;;;0.50;0.50;;;15.30;99.90;;;;;;5042352;28;20176;-74
2020/12/23 11:26:44;;;;;;;1.83;0.70;;;15.20;99.90;;;;;;5042050;28;20432;-75
2020/12/23 11:29:09;;;;;;;1.03;0.53;;;15.10;99.90;;;;;;5033204;28;20680;-74
2020/12/23 11:31:35;;;;;;;0.60;0.53;;;15.00;99.90;;;;;;5032465;28;20205;-74
2020/12/23 11:34:01;;;;;;;0.70;0.70;;;15.00;99.90;;;;;;5032625;28;20181;-75
2020/12/23 11:36:28;;;;;;;0.93;0.90;;;14.90;99.90;;;;;;5031143;28;20181;-74
2020/12/23 11:38:53;;;;;;;0.60;0.60;;;14.90;99.90;;;;;;5034789;28;20421;-74
2020/12/23 11:41:19;;;;;;;0.70;0.60;;;14.80;99.90;;;;;;5032468;28;20503;-74
2020/12/23 11:43:44;;;;;;;0.57;0.57;;;14.70;99.90;;;;;;5031510;28;20210;-74
2020/12/23 11:46:10;;;;;;;0.90;0.50;;;14.60;99.90;;;;;;5033536;28;20230;-73
2020/12/23 11:48:36;;;;;;;1.17;0.80;;;14.60;99.90;;;;;;5032140;28;20189;-73
2020/12/23 11:51:05;;;;;;;0.60;0.60;;;14.50;99.90;;;;;;5032449;28;20186;-73
2020/12/23 11:53:31;;;;;;;1.53;1.03;;;14.50;99.90;;;;;;5027909;28;20969;-74
2020/12/23 11:55:56;;;;;;;0.60;0.60;;;14.50;99.90;;;;;;5039300;28;20433;-74
2020/12/23 11:58:22;;;;;;;0.90;0.80;;;14.40;99.90;;;;;;5036544;28;20272;-74
2020/12/23 12:00:48;;;;;;;1.33;0.60;;;14.40;99.90;;;;;;5036296;28;20194;-73
2020/12/23 12:03:14;;;;;;;3.90;0.70;;;14.40;99.90;;;;;;5036552;28;20193;-73
2020/12/23 12:05:39;;;;;;;0.50;0.50;;;14.30;99.90;;;;;;5037219;28;21010;-74
2020/12/23 12:08:07;;;;;;;0.70;0.70;;;14.30;99.90;;;;;;5038635;28;20170;-75
2020/12/23 12:10:33;;;;;;;0.80;0.77;;;14.30;99.90;;;;;;5042037;28;20180;-73
2020/12/23 12:12:59;;;;;;;1.17;0.70;;;14.30;99.90;;;;;;5040924;28;20468;-74
2020/12/23 12:15:25;;;;;;;0.70;0.70;;;14.30;99.90;;;;;;5040953;28;20186;-75
2020/12/23 12:17:50;;;;;;;0.70;0.70;;;14.30;99.90;;;;;;5039921;28;20432;-75
2020/12/23 12:20:19;;;;;;;1.50;0.70;;;14.30;99.90;;;;;;5041773;28;20180;-75
2020/12/23 12:22:44;;;;;;;1.00;0.90;;;14.30;99.90;;;;;;5032142;28;20293;-74
2020/12/23 12:25:13;;;;;;;0.90;0.90;;;14.30;99.90;;;;;;5034679;28;20986;-74
2020/12/23 12:27:38;;;;;;;0.70;0.70;;;14.30;99.90;;;;;;5038130;28;20662;-74
2020/12/23 12:30:04;;;;;;;0.60;0.60;;;14.30;99.90;;;;;;5037416;28;20512;-74
2020/12/23 12:32:29;;;;;;;1.67;0.70;;;14.30;99.90;;;;;;5036272;28;20258;-74
2020/12/23 12:34:55;;;;;;;1.83;0.60;;;14.30;99.90;;;;;;5038217;28;20185;-74
2020/12/23 12:37:20;;;;;;;0.60;0.60;;;14.30;99.90;;;;;;5039453;28;20234;-74
2020/12/23 12:39:46;;;;;;;0.60;0.60;;;14.40;99.90;;;;;;5038912;28;20197;-74
2020/12/23 12:42:11;;;;;;;0.70;0.50;;;14.40;99.90;;;;;;5041123;28;20573;-74
2020/12/23 12:44:37;;;;;;;2.47;1.73;;;14.50;99.90;;;;;;5039131;28;20670;-74
2020/12/23 12:47:02;;;;;;;1.53;0.53;;;14.40;99.90;;;;;;5041470;28;20182;-74